createdAt,value
2017-11-15T00:00:17.205Z,98.46
2017-11-15T00:00:43.333Z,98.65
2017-11-15T00:01:09.477Z,98.46
2017-11-15T00:01:35.592Z,98.65
2017-11-15T00:02:01.718Z,98.55
2017-11-15T00:02:27.835Z,98.36
2017-11-15T00:02:53.982Z,98.46
2017-11-15T00:03:20.102Z,98.74
2017-11-15T00:03:46.218Z,98.84
2017-11-15T00:04:12.345Z,98.27
2017-11-15T00:04:38.511Z,98.36
2017-11-15T00:05:04.627Z,98.46
2017-11-15T00:05:30.759Z,98.65
2017-11-15T00:05:56.902Z,98.46
2017-11-15T00:06:23.011Z,98.46
2017-11-15T00:06:49.135Z,98.46
2017-11-15T00:07:15.279Z,98.41
2017-11-15T00:07:41.396Z,98.27
2017-11-15T00:08:07.538Z,98.46
2017-11-15T00:08:33.653Z,98.32
2017-11-15T00:08:59.780Z,98.46
2017-11-15T00:09:25.961Z,98.55
2017-11-15T00:09:52.104Z,98.46
2017-11-15T00:10:18.225Z,98.55
2017-11-15T00:10:44.341Z,98.65
2017-11-15T00:11:10.466Z,98.18
2017-11-15T00:11:36.583Z,98.55
2017-11-15T00:12:02.706Z,98.36
2017-11-15T00:12:28.823Z,98.84
2017-11-15T00:12:54.955Z,99.36
2017-11-15T00:13:21.080Z,99.13
2017-11-15T00:13:47.192Z,98.74
2017-11-15T00:14:13.312Z,98.84
2017-11-15T00:14:39.433Z,98.65
2017-11-15T00:15:05.557Z,98.27
2017-11-15T00:15:31.706Z,98.18
2017-11-15T00:15:57.829Z,98.65
2017-11-15T00:16:23.961Z,98.65
2017-11-15T00:16:50.086Z,98.46
2017-11-15T00:17:16.207Z,98.36
2017-11-15T00:17:42.336Z,98.46
2017-11-15T00:18:08.443Z,98.46
2017-11-15T00:18:34.579Z,98.65
2017-11-15T00:19:00.707Z,99.13
2017-11-15T00:19:26.833Z,99.32
2017-11-15T00:19:52.953Z,99.32
2017-11-15T00:20:19.078Z,99.22
2017-11-15T00:20:45.196Z,98.55
2017-11-15T00:21:11.321Z,98.94
2017-11-15T00:21:37.438Z,98.36
2017-11-15T00:22:03.585Z,98.65
2017-11-15T00:22:29.708Z,98.55
2017-11-15T00:22:55.831Z,98.36
2017-11-15T00:23:21.950Z,98.36
2017-11-15T00:23:48.098Z,98.36
2017-11-15T00:24:14.217Z,98.55
2017-11-15T00:24:40.332Z,98.36
2017-11-15T00:25:06.458Z,98.55
2017-11-15T00:25:32.580Z,98.36
2017-11-15T00:25:58.699Z,98.46
2017-11-15T00:26:24.826Z,98.65
2017-11-15T00:26:50.962Z,98.36
2017-11-15T00:27:17.084Z,98.27
2017-11-15T00:27:43.207Z,98.18
2017-11-15T00:28:09.325Z,98.36
2017-11-15T00:28:35.454Z,98.36
2017-11-15T00:29:01.590Z,99.17
2017-11-15T00:29:27.734Z,98.98
2017-11-15T00:29:53.851Z,99.03
2017-11-15T00:30:19.975Z,99.27
2017-11-15T00:30:46.121Z,99.27
2017-11-15T00:31:12.236Z,99.36
2017-11-15T00:31:38.361Z,98.94
2017-11-15T00:32:04.520Z,98.98
2017-11-15T00:32:30.646Z,99.36
2017-11-15T00:32:56.758Z,98.74
2017-11-15T00:33:22.884Z,99.27
2017-11-15T00:33:49.000Z,99.55
2017-11-15T00:34:15.132Z,99.51
2017-11-15T00:34:41.271Z,99.13
2017-11-15T00:35:07.395Z,99.27
2017-11-15T00:35:33.510Z,98.98
2017-11-15T00:35:59.637Z,99.13
2017-11-15T00:36:25.760Z,98.88
2017-11-15T00:36:51.888Z,99.27
2017-11-15T00:37:17.996Z,99.32
2017-11-15T00:37:44.113Z,99.03
2017-11-15T00:38:10.238Z,98.84
2017-11-15T00:38:36.374Z,99.32
2017-11-15T00:39:02.504Z,98.94
2017-11-15T00:39:28.654Z,98.94
2017-11-15T00:39:54.779Z,99.13
2017-11-15T00:40:20.918Z,99.22
2017-11-15T00:40:47.049Z,99.32
2017-11-15T00:41:13.171Z,99.13
2017-11-15T00:41:39.285Z,98.65
2017-11-15T00:42:05.410Z,98.55
2017-11-15T00:42:31.551Z,98.36
2017-11-15T00:42:57.670Z,98.55
2017-11-15T00:43:23.793Z,98.84
2017-11-15T00:43:49.919Z,98.84
2017-11-15T00:44:16.041Z,98.36
2017-11-15T00:44:42.153Z,98.55
2017-11-15T00:45:08.276Z,98.55
2017-11-15T00:45:34.404Z,98.55
2017-11-15T00:46:00.522Z,98.55
2017-11-15T00:46:26.646Z,98.55
2017-11-15T00:46:52.764Z,98.55
2017-11-15T00:47:18.892Z,99.22
2017-11-15T00:47:45.006Z,99.17
2017-11-15T00:48:11.135Z,99.32
2017-11-15T00:48:37.290Z,98.98
2017-11-15T00:49:03.411Z,99.03
2017-11-15T00:49:29.536Z,99.22
2017-11-15T00:49:55.656Z,99.03
2017-11-15T00:50:21.782Z,98.94
2017-11-15T00:50:47.914Z,98.79
2017-11-15T00:51:14.035Z,99.27
2017-11-15T00:51:40.165Z,99.46
2017-11-15T00:52:06.280Z,99.46
2017-11-15T00:52:32.399Z,99.46
2017-11-15T00:52:58.525Z,99.55
2017-11-15T00:53:24.650Z,99.22
2017-11-15T00:53:50.770Z,99.13
2017-11-15T00:54:16.887Z,99.41
2017-11-15T00:54:43.013Z,99.65
2017-11-15T00:55:09.135Z,99.46
2017-11-15T00:55:35.256Z,98.98
2017-11-15T00:56:01.372Z,99.41
2017-11-15T00:56:27.494Z,99.65
2017-11-15T00:56:53.613Z,98.98
2017-11-15T00:57:19.731Z,99.55
2017-11-15T00:57:45.848Z,98.94
2017-11-15T00:58:11.978Z,99.41
2017-11-15T00:58:38.101Z,99.51
2017-11-15T00:59:04.260Z,99.89
2017-11-15T00:59:30.377Z,99.51
2017-11-15T00:59:56.539Z,99.41
2017-11-15T01:00:22.645Z,99.03
2017-11-15T01:00:48.779Z,99.03
2017-11-15T01:01:14.893Z,98.94
2017-11-15T01:01:41.016Z,98.84
2017-11-15T01:02:07.135Z,98.84
2017-11-15T01:02:33.254Z,99.13
2017-11-15T01:02:59.394Z,98.94
2017-11-15T01:03:25.511Z,98.94
2017-11-15T01:03:51.650Z,98.94
2017-11-15T01:04:17.775Z,99.22
2017-11-15T01:04:43.900Z,99.22
2017-11-15T01:05:10.021Z,99.41
2017-11-15T01:05:36.139Z,99.08
2017-11-15T01:06:02.257Z,98.98
2017-11-15T01:06:28.378Z,99.46
2017-11-15T01:06:54.525Z,99.41
2017-11-15T01:07:20.644Z,99.03
2017-11-15T01:07:46.770Z,99.17
2017-11-15T01:08:12.888Z,98.98
2017-11-15T01:08:39.015Z,99.84
2017-11-15T01:09:05.132Z,99.74
2017-11-15T01:09:31.276Z,99.36
2017-11-15T01:09:57.419Z,99.55
2017-11-15T01:10:23.548Z,99.6
2017-11-15T01:10:49.670Z,99.55
2017-11-15T01:11:15.789Z,99.55
2017-11-15T01:11:41.913Z,99.99
2017-11-15T01:12:08.035Z,99.99
2017-11-15T01:12:34.158Z,99.74
2017-11-15T01:13:01.818Z,99.69
2017-11-15T01:13:27.957Z,99.65
2017-11-15T01:13:54.106Z,99.6
2017-11-15T01:14:20.267Z,99.69
2017-11-15T01:14:46.394Z,99.6
2017-11-15T01:15:12.546Z,99.13
2017-11-15T01:15:38.684Z,99.32
2017-11-15T01:16:04.823Z,98.98
2017-11-15T01:16:30.973Z,99.65
2017-11-15T01:16:57.122Z,99.36
2017-11-15T01:17:23.265Z,99.55
2017-11-15T01:17:49.416Z,99.84
2017-11-15T01:18:15.554Z,99.65
2017-11-15T01:18:41.699Z,99.99
2017-11-15T01:19:07.850Z,99.99
2017-11-15T01:19:33.992Z,99.99
2017-11-15T01:20:00.140Z,99.99
2017-11-15T01:20:26.285Z,99.99
2017-11-15T01:20:52.423Z,99.99
2017-11-15T01:21:18.596Z,99.93
2017-11-15T01:21:44.768Z,99.99
2017-11-15T01:22:10.924Z,99.99
2017-11-15T01:22:37.069Z,99.99
2017-11-15T01:23:03.204Z,99.99
2017-11-15T01:23:29.352Z,99.99
2017-11-15T01:23:55.518Z,99.99
2017-11-15T01:24:21.673Z,99.99
2017-11-15T01:24:47.817Z,99.99
2017-11-15T01:25:13.967Z,99.93
2017-11-15T01:25:40.112Z,99.93
2017-11-15T01:26:06.254Z,99.93
2017-11-15T01:26:32.405Z,99.99
2017-11-15T01:26:58.551Z,99.99
2017-11-15T01:27:24.698Z,99.99
2017-11-15T01:27:50.839Z,99.99
2017-11-15T01:28:16.988Z,99.99
2017-11-15T01:28:43.127Z,99.99
2017-11-15T01:29:09.293Z,99.99
2017-11-15T01:29:35.437Z,99.99
2017-11-15T01:30:01.608Z,99.99
2017-11-15T01:30:27.751Z,99.99
2017-11-15T01:30:53.896Z,99.99
2017-11-15T01:31:20.065Z,99.99
2017-11-15T01:31:46.212Z,99.99
2017-11-15T01:32:12.354Z,99.99
2017-11-15T01:32:38.495Z,99.99
2017-11-15T01:33:04.654Z,99.99
2017-11-15T01:33:30.813Z,99.99
2017-11-15T01:33:56.957Z,99.99
2017-11-15T01:34:23.105Z,99.99
2017-11-15T01:34:49.270Z,99.99
2017-11-15T01:35:15.418Z,99.99
2017-11-15T01:35:41.568Z,99.99
2017-11-15T01:36:07.711Z,99.99
2017-11-15T01:36:33.856Z,99.99
2017-11-15T01:37:00.001Z,99.99
2017-11-15T01:37:26.152Z,99.99
2017-11-15T01:37:52.285Z,99.99
2017-11-15T01:38:18.434Z,99.99
2017-11-15T01:38:44.583Z,99.99
2017-11-15T01:39:10.722Z,99.99
2017-11-15T01:39:36.875Z,99.99
2017-11-15T01:40:03.014Z,99.99
2017-11-15T01:40:29.156Z,99.99
2017-11-15T01:40:55.325Z,99.99
2017-11-15T01:41:21.472Z,99.99
2017-11-15T01:41:47.642Z,99.99
2017-11-15T01:42:13.779Z,99.99
2017-11-15T01:42:39.929Z,99.98
2017-11-15T01:43:06.073Z,99.99
2017-11-15T01:43:32.210Z,99.99
2017-11-15T01:43:58.352Z,99.99
2017-11-15T01:44:24.496Z,99.99
2017-11-15T01:44:50.645Z,99.99
2017-11-15T01:45:16.793Z,99.79
2017-11-15T01:45:42.939Z,99.6
2017-11-15T01:46:09.082Z,99.6
2017-11-15T01:46:35.223Z,99.6
2017-11-15T01:47:01.372Z,99.51
2017-11-15T01:47:27.549Z,99.51
2017-11-15T01:47:53.718Z,99.89
2017-11-15T01:48:19.877Z,99.99
2017-11-15T01:48:46.004Z,99.89
2017-11-15T01:49:12.156Z,99.89
2017-11-15T01:49:38.297Z,99.41
2017-11-15T01:50:04.447Z,99.69
2017-11-15T01:50:30.613Z,99.51
2017-11-15T01:50:56.756Z,99.41
2017-11-15T01:51:22.906Z,99.6
2017-11-15T01:51:49.049Z,99.51
2017-11-15T01:52:15.199Z,99.69
2017-11-15T01:52:41.334Z,99.69
2017-11-15T01:53:07.486Z,99.79
2017-11-15T01:53:33.627Z,99.98
2017-11-15T01:53:59.831Z,99.79
2017-11-15T01:54:25.978Z,99.41
2017-11-15T01:54:52.144Z,99.79
2017-11-15T01:55:18.284Z,99.51
2017-11-15T01:55:44.436Z,99.51
2017-11-15T01:56:10.576Z,98.94
2017-11-15T01:56:36.727Z,99.32
2017-11-15T01:57:02.869Z,99.03
2017-11-15T01:57:29.015Z,98.94
2017-11-15T01:57:55.178Z,99.41
2017-11-15T01:58:21.332Z,99.22
2017-11-15T01:58:47.473Z,99.22
2017-11-15T01:59:13.645Z,99.32
2017-11-15T01:59:39.825Z,99.6
2017-11-15T02:00:05.964Z,99.32
2017-11-15T02:00:32.139Z,99.41
2017-11-15T02:00:58.278Z,99.32
2017-11-15T02:01:24.426Z,98.94
2017-11-15T02:01:50.569Z,99.13
2017-11-15T02:02:16.716Z,99.32
2017-11-15T02:02:42.866Z,99.03
2017-11-15T02:03:09.010Z,99.51
2017-11-15T02:03:35.150Z,99.6
2017-11-15T02:04:01.301Z,99.51
2017-11-15T02:04:27.444Z,99.51
2017-11-15T02:04:53.581Z,99.51
2017-11-15T02:05:19.732Z,98.94
2017-11-15T02:05:45.879Z,99.22
2017-11-15T02:06:12.025Z,99.22
2017-11-15T02:06:38.168Z,99.03
2017-11-15T02:07:04.345Z,98.94
2017-11-15T02:07:30.526Z,98.94
2017-11-15T02:07:56.664Z,98.94
2017-11-15T02:08:22.807Z,99.03
2017-11-15T02:08:48.949Z,98.94
2017-11-15T02:09:15.095Z,99.13
2017-11-15T02:09:41.245Z,99.03
2017-11-15T02:10:07.381Z,99.22
2017-11-15T02:10:33.527Z,99.03
2017-11-15T02:10:59.667Z,99.32
2017-11-15T02:11:25.811Z,99.32
2017-11-15T02:11:51.963Z,99.03
2017-11-15T02:12:18.105Z,99.13
2017-11-15T02:12:44.252Z,98.94
2017-11-15T02:13:10.399Z,99.03
2017-11-15T02:13:36.540Z,98.84
2017-11-15T02:14:02.689Z,99.51
2017-11-15T02:14:28.889Z,98.94
2017-11-15T02:14:55.055Z,99.32
2017-11-15T02:15:21.193Z,99.79
2017-11-15T02:15:47.345Z,99.65
2017-11-15T02:16:13.496Z,99.51
2017-11-15T02:16:39.658Z,99.74
2017-11-15T02:17:05.799Z,99.99
2017-11-15T02:17:31.950Z,99.89
2017-11-15T02:17:58.090Z,99.79
2017-11-15T02:18:24.242Z,99.6
2017-11-15T02:18:50.387Z,99.79
2017-11-15T02:19:16.529Z,99.6
2017-11-15T02:19:42.682Z,99.69
2017-11-15T02:20:08.823Z,99.69
2017-11-15T02:20:34.968Z,99.51
2017-11-15T02:21:01.115Z,99.79
2017-11-15T02:21:27.254Z,99.79
2017-11-15T02:21:53.403Z,99.79
2017-11-15T02:22:19.555Z,99.51
2017-11-15T02:22:45.689Z,99.79
2017-11-15T02:23:11.865Z,99.79
2017-11-15T02:23:38.008Z,99.79
2017-11-15T02:24:04.158Z,99.6
2017-11-15T02:24:30.312Z,99.41
2017-11-15T02:24:56.444Z,99.79
2017-11-15T02:25:22.587Z,99.89
2017-11-15T02:25:48.735Z,99.99
2017-11-15T02:26:14.890Z,99.99
2017-11-15T02:26:41.033Z,99.79
2017-11-15T02:27:07.175Z,99.6
2017-11-15T02:27:33.324Z,99.69
2017-11-15T02:27:59.462Z,99.69
2017-11-15T02:28:25.606Z,99.22
2017-11-15T02:28:51.765Z,99.32
2017-11-15T02:29:17.922Z,99.22
2017-11-15T02:29:44.136Z,99.69
2017-11-15T02:30:10.272Z,99.32
2017-11-15T02:30:36.418Z,99.32
2017-11-15T02:31:02.579Z,99.6
2017-11-15T02:31:28.741Z,99.22
2017-11-15T02:31:54.872Z,99.32
2017-11-15T02:32:21.021Z,99.51
2017-11-15T02:32:47.163Z,99.22
2017-11-15T02:33:13.309Z,99.32
2017-11-15T02:33:39.466Z,98.94
2017-11-15T02:34:05.630Z,99.41
2017-11-15T02:34:31.778Z,99.41
2017-11-15T02:34:57.917Z,99.32
2017-11-15T02:35:24.095Z,99.51
2017-11-15T02:35:50.236Z,99.51
2017-11-15T02:36:16.381Z,99.32
2017-11-15T02:36:42.574Z,99.22
2017-11-15T02:37:08.721Z,99.22
2017-11-15T02:37:34.868Z,99.22
2017-11-15T02:38:01.016Z,99.32
2017-11-15T02:38:27.156Z,98.94
2017-11-15T02:38:53.305Z,99.32
2017-11-15T02:39:19.456Z,99.32
2017-11-15T02:39:45.601Z,99.03
2017-11-15T02:40:11.750Z,99.22
2017-11-15T02:40:37.879Z,98.94
2017-11-15T02:41:04.029Z,99.41
2017-11-15T02:41:30.176Z,99.41
2017-11-15T02:41:56.319Z,99.98
2017-11-15T02:42:22.485Z,99.69
2017-11-15T02:42:48.639Z,99.79
2017-11-15T02:43:14.779Z,99.6
2017-11-15T02:43:40.924Z,99.79
2017-11-15T02:44:07.074Z,99.74
2017-11-15T02:44:33.222Z,99.99
2017-11-15T02:44:59.362Z,99.99
2017-11-15T02:45:25.512Z,99.99
2017-11-15T02:45:51.654Z,99.99
2017-11-15T02:46:17.841Z,99.98
2017-11-15T02:46:44.013Z,99.65
2017-11-15T02:47:10.150Z,99.84
2017-11-15T02:47:36.321Z,99.99
2017-11-15T02:48:02.465Z,99.99
2017-11-15T02:48:28.612Z,99.99
2017-11-15T02:48:54.748Z,99.99
2017-11-15T02:49:20.897Z,99.99
2017-11-15T02:49:47.069Z,99.99
2017-11-15T02:50:13.208Z,99.99
2017-11-15T02:50:39.357Z,99.99
2017-11-15T02:51:05.504Z,99.99
2017-11-15T02:51:31.651Z,99.99
2017-11-15T02:51:57.797Z,99.99
2017-11-15T02:52:23.943Z,99.99
2017-11-15T02:52:50.115Z,99.99
2017-11-15T02:53:16.265Z,99.99
2017-11-15T02:53:42.394Z,99.99
2017-11-15T02:54:08.547Z,99.99
2017-11-15T02:54:34.694Z,99.99
2017-11-15T02:55:00.867Z,99.99
2017-11-15T02:55:27.011Z,99.99
2017-11-15T02:55:53.157Z,99.99
2017-11-15T02:56:19.305Z,99.99
2017-11-15T02:56:45.444Z,99.99
2017-11-15T02:57:11.590Z,99.99
2017-11-15T02:57:37.735Z,99.99
2017-11-15T02:58:03.891Z,99.99
2017-11-15T02:58:30.022Z,99.99
2017-11-15T02:58:56.168Z,99.99
2017-11-15T02:59:22.314Z,99.99
2017-11-15T02:59:48.455Z,99.99
2017-11-15T03:00:14.611Z,99.99
2017-11-15T03:00:40.769Z,99.99
2017-11-15T03:01:06.919Z,99.99
2017-11-15T03:01:33.063Z,99.99
2017-11-15T03:01:59.210Z,99.99
2017-11-15T03:02:25.347Z,99.99
2017-11-15T03:02:51.522Z,99.99
2017-11-15T03:03:17.679Z,99.99
2017-11-15T03:03:43.820Z,99.99
2017-11-15T03:04:09.973Z,99.99
2017-11-15T03:04:36.114Z,99.99
2017-11-15T03:05:02.252Z,99.99
2017-11-15T03:05:28.398Z,99.99
2017-11-15T03:05:54.547Z,99.99
2017-11-15T03:06:20.685Z,99.99
2017-11-15T03:06:46.846Z,99.99
2017-11-15T03:07:12.978Z,99.99
2017-11-15T03:07:39.127Z,99.99
2017-11-15T03:08:05.271Z,99.99
2017-11-15T03:08:31.416Z,99.99
2017-11-15T03:08:57.560Z,99.99
2017-11-15T03:09:23.738Z,99.99
2017-11-15T03:09:49.907Z,99.99
2017-11-15T03:10:16.057Z,99.99
2017-11-15T03:10:42.195Z,99.99
2017-11-15T03:11:08.334Z,99.99
2017-11-15T03:11:34.481Z,99.99
2017-11-15T03:12:00.630Z,99.99
2017-11-15T03:12:26.771Z,99.99
2017-11-15T03:12:52.913Z,99.99
2017-11-15T03:13:19.064Z,99.99
2017-11-15T03:13:45.205Z,99.99
2017-11-15T03:14:11.361Z,99.99
2017-11-15T03:14:37.497Z,99.99
2017-11-15T03:15:03.651Z,99.99
2017-11-15T03:15:29.820Z,99.99
2017-11-15T03:15:55.964Z,99.99
2017-11-15T03:16:22.105Z,99.99
2017-11-15T03:16:48.254Z,99.99
2017-11-15T03:17:14.401Z,99.99
2017-11-15T03:17:40.561Z,99.99
2017-11-15T03:18:06.711Z,99.99
2017-11-15T03:18:32.851Z,99.99
2017-11-15T03:18:58.999Z,99.99
2017-11-15T03:19:25.146Z,99.99
2017-11-15T03:19:51.282Z,99.99
2017-11-15T03:20:17.432Z,99.99
2017-11-15T03:20:43.576Z,99.99
2017-11-15T03:21:09.723Z,99.99
2017-11-15T03:21:35.862Z,99.99
2017-11-15T03:22:02.008Z,99.99
2017-11-15T03:22:28.149Z,99.99
2017-11-15T03:22:54.301Z,99.99
2017-11-15T03:23:20.448Z,99.99
2017-11-15T03:23:46.588Z,99.99
2017-11-15T03:24:12.732Z,99.99
2017-11-15T03:24:38.878Z,99.99
2017-11-15T03:25:05.019Z,99.99
2017-11-15T03:25:31.166Z,99.99
2017-11-15T03:25:57.306Z,99.99
2017-11-15T03:26:23.482Z,99.99
2017-11-15T03:26:49.619Z,99.99
2017-11-15T03:27:15.769Z,99.99
2017-11-15T03:27:41.919Z,99.99
2017-11-15T03:28:08.086Z,99.99
2017-11-15T03:28:34.230Z,99.99
2017-11-15T03:29:00.373Z,99.99
2017-11-15T03:29:26.528Z,99.99
2017-11-15T03:29:52.674Z,99.99
2017-11-15T03:30:18.820Z,99.99
2017-11-15T03:30:44.993Z,99.99
2017-11-15T03:31:11.137Z,99.99
2017-11-15T03:31:37.276Z,99.99
2017-11-15T03:32:03.423Z,99.99
2017-11-15T03:32:29.570Z,99.99
2017-11-15T03:32:55.708Z,99.99
2017-11-15T03:33:21.856Z,99.99
2017-11-15T03:33:47.995Z,99.99
2017-11-15T03:34:14.145Z,99.99
2017-11-15T03:34:40.317Z,99.99
2017-11-15T03:35:06.458Z,99.99
2017-11-15T03:35:32.610Z,99.99
2017-11-15T03:35:58.750Z,99.99
2017-11-15T03:36:24.900Z,99.99
2017-11-15T03:36:51.040Z,99.99
2017-11-15T03:37:17.195Z,99.99
2017-11-15T03:37:43.332Z,99.99
2017-11-15T03:38:09.475Z,99.99
2017-11-15T03:38:35.653Z,99.99
2017-11-15T03:39:01.794Z,99.99
2017-11-15T03:39:27.943Z,99.99
2017-11-15T03:39:54.088Z,99.99
2017-11-15T03:40:20.228Z,99.99
2017-11-15T03:40:46.400Z,99.99
2017-11-15T03:41:12.546Z,99.99
2017-11-15T03:41:38.691Z,99.99
2017-11-15T03:42:04.858Z,99.99
2017-11-15T03:42:31.008Z,99.99
2017-11-15T03:42:57.147Z,99.99
2017-11-15T03:43:23.294Z,99.99
2017-11-15T03:43:49.446Z,99.99
2017-11-15T03:44:15.587Z,99.99
2017-11-15T03:44:41.733Z,99.99
2017-11-15T03:45:07.870Z,99.99
2017-11-15T03:45:34.025Z,99.99
2017-11-15T03:46:00.166Z,99.99
2017-11-15T03:46:26.310Z,99.99
2017-11-15T03:46:52.477Z,99.99
2017-11-15T03:47:18.624Z,99.99
2017-11-15T03:47:44.765Z,99.99
2017-11-15T03:48:10.942Z,99.99
2017-11-15T03:48:37.088Z,99.99
2017-11-15T03:49:03.227Z,99.99
2017-11-15T03:49:29.366Z,99.99
2017-11-15T03:49:55.515Z,99.99
2017-11-15T03:50:21.656Z,99.99
2017-11-15T03:50:47.805Z,99.99
2017-11-15T03:51:13.958Z,99.99
2017-11-15T03:51:40.097Z,99.99
2017-11-15T03:52:06.244Z,99.99
2017-11-15T03:52:32.391Z,99.99
2017-11-15T03:52:58.542Z,99.99
2017-11-15T03:53:24.683Z,99.99
2017-11-15T03:53:50.839Z,99.99
2017-11-15T03:54:16.982Z,99.99
2017-11-15T03:54:43.155Z,99.99
2017-11-15T03:55:09.319Z,99.99
2017-11-15T03:55:35.449Z,99.99
2017-11-15T03:56:01.588Z,99.99
2017-11-15T03:56:27.753Z,99.99
2017-11-15T03:56:53.901Z,99.99
2017-11-15T03:57:20.049Z,99.99
2017-11-15T03:57:46.186Z,99.99
2017-11-15T03:58:12.332Z,99.99
2017-11-15T03:58:38.480Z,99.99
2017-11-15T03:59:04.621Z,99.99
2017-11-15T03:59:30.775Z,99.99
2017-11-15T03:59:56.940Z,99.99
2017-11-15T04:00:23.091Z,99.99
2017-11-15T04:00:49.258Z,99.99
2017-11-15T04:01:15.398Z,99.99
2017-11-15T04:01:41.544Z,99.99
2017-11-15T04:02:07.692Z,99.99
2017-11-15T04:02:33.833Z,99.99
2017-11-15T04:02:59.986Z,99.99
2017-11-15T04:03:26.132Z,99.99
2017-11-15T04:03:52.279Z,99.99
2017-11-15T04:04:18.425Z,99.99
2017-11-15T04:04:44.568Z,99.99
2017-11-15T04:05:10.715Z,99.99
2017-11-15T04:05:36.856Z,99.99
2017-11-15T04:06:03.004Z,99.99
2017-11-15T04:06:29.154Z,99.99
2017-11-15T04:06:55.297Z,99.99
2017-11-15T04:07:21.451Z,99.99
2017-11-15T04:07:47.587Z,99.99
2017-11-15T04:08:13.739Z,99.99
2017-11-15T04:08:39.891Z,99.99
2017-11-15T04:09:06.033Z,99.99
2017-11-15T04:09:32.178Z,99.99
2017-11-15T04:09:58.317Z,99.99
2017-11-15T04:10:24.454Z,99.99
2017-11-15T04:10:50.626Z,99.99
2017-11-15T04:11:16.775Z,99.99
2017-11-15T04:11:42.922Z,99.99
2017-11-15T04:12:09.070Z,99.99
2017-11-15T04:12:35.213Z,99.99
2017-11-15T04:13:01.385Z,99.99
2017-11-15T04:13:27.531Z,99.99
2017-11-15T04:13:53.677Z,99.99
2017-11-15T04:14:19.814Z,99.99
2017-11-15T04:14:45.960Z,99.99
2017-11-15T04:15:12.107Z,99.99
2017-11-15T04:15:38.279Z,99.99
2017-11-15T04:16:04.423Z,99.99
2017-11-15T04:16:30.558Z,99.99
2017-11-15T04:16:56.709Z,99.99
2017-11-15T04:17:22.852Z,99.99
2017-11-15T04:17:49.002Z,99.99
2017-11-15T04:18:15.143Z,99.99
2017-11-15T04:18:41.292Z,99.99
2017-11-15T04:19:07.440Z,99.99
2017-11-15T04:19:33.582Z,99.99
2017-11-15T04:19:59.731Z,99.99
2017-11-15T04:20:25.871Z,99.99
2017-11-15T04:20:52.017Z,99.99
2017-11-15T04:21:18.190Z,99.99
2017-11-15T04:21:44.337Z,99.99
2017-11-15T04:22:10.480Z,99.99
2017-11-15T04:22:36.622Z,99.99
2017-11-15T04:23:02.769Z,99.99
2017-11-15T04:23:28.914Z,99.99
2017-11-15T04:23:55.060Z,99.99
2017-11-15T04:24:21.199Z,99.99
2017-11-15T04:24:47.345Z,99.99
2017-11-15T04:25:13.482Z,99.99
2017-11-15T04:25:39.629Z,99.99
2017-11-15T04:26:05.781Z,99.99
2017-11-15T04:26:31.922Z,99.99
2017-11-15T04:26:58.075Z,99.99
2017-11-15T04:27:24.208Z,99.99
2017-11-15T04:27:50.350Z,99.99
2017-11-15T04:28:16.505Z,99.99
2017-11-15T04:28:42.638Z,99.99
2017-11-15T04:29:08.787Z,99.99
2017-11-15T04:29:34.932Z,99.99
2017-11-15T04:30:01.080Z,99.99
2017-11-15T04:30:27.221Z,99.99
2017-11-15T04:30:53.370Z,99.99
2017-11-15T04:31:19.539Z,99.99
2017-11-15T04:31:45.687Z,99.99
2017-11-15T04:32:11.838Z,99.99
2017-11-15T04:32:37.975Z,99.99
2017-11-15T04:33:04.129Z,99.99
2017-11-15T04:33:30.266Z,99.99
2017-11-15T04:33:56.411Z,99.99
2017-11-15T04:34:22.561Z,99.99
2017-11-15T04:34:48.704Z,99.99
2017-11-15T04:35:14.849Z,99.99
2017-11-15T04:35:40.985Z,99.99
2017-11-15T04:36:07.132Z,99.99
2017-11-15T04:36:33.284Z,99.99
2017-11-15T04:36:59.431Z,99.99
2017-11-15T04:37:25.568Z,99.99
2017-11-15T04:37:51.721Z,99.99
2017-11-15T04:38:17.870Z,99.99
2017-11-15T04:38:44.011Z,99.99
2017-11-15T04:39:10.155Z,99.99
2017-11-15T04:39:36.298Z,99.99
2017-11-15T04:40:02.474Z,99.99
2017-11-15T04:40:28.620Z,99.99
2017-11-15T04:40:54.760Z,99.99
2017-11-15T04:41:20.898Z,99.99
2017-11-15T04:41:47.045Z,99.99
2017-11-15T04:42:13.194Z,99.99
2017-11-15T04:42:39.373Z,99.99
2017-11-15T04:43:05.507Z,99.99
2017-11-15T04:43:31.650Z,99.99
2017-11-15T04:43:57.794Z,99.99
2017-11-15T04:44:23.935Z,99.99
2017-11-15T04:44:50.084Z,99.99
2017-11-15T04:45:16.225Z,99.99
2017-11-15T04:45:42.373Z,99.99
2017-11-15T04:46:08.529Z,99.99
2017-11-15T04:46:34.670Z,99.99
2017-11-15T04:47:00.806Z,99.99
2017-11-15T04:47:26.981Z,99.99
2017-11-15T04:47:53.120Z,99.99
2017-11-15T04:48:19.271Z,99.99
2017-11-15T04:48:45.410Z,99.99
2017-11-15T04:49:11.564Z,99.99
2017-11-15T04:49:37.734Z,99.99
2017-11-15T04:50:03.879Z,99.99
2017-11-15T04:50:30.020Z,99.99
2017-11-15T04:50:56.175Z,99.99
2017-11-15T04:51:22.321Z,99.99
2017-11-15T04:51:48.466Z,99.99
2017-11-15T04:52:14.604Z,99.99
2017-11-15T04:52:40.759Z,99.99
2017-11-15T04:53:06.902Z,99.99
2017-11-15T04:53:33.044Z,99.99
2017-11-15T04:53:59.200Z,99.99
2017-11-15T04:54:25.366Z,99.99
2017-11-15T04:54:51.513Z,99.99
2017-11-15T04:55:17.653Z,99.99
2017-11-15T04:55:43.821Z,99.99
2017-11-15T04:56:09.963Z,99.99
2017-11-15T04:56:36.163Z,99.99
2017-11-15T04:57:02.313Z,99.99
2017-11-15T04:57:28.462Z,99.99
2017-11-15T04:57:54.604Z,99.99
2017-11-15T04:58:20.753Z,99.99
2017-11-15T04:58:46.891Z,99.99
2017-11-15T04:59:13.049Z,99.99
2017-11-15T04:59:39.181Z,99.99
2017-11-15T05:00:05.329Z,99.99
2017-11-15T05:00:31.475Z,99.99
2017-11-15T05:00:57.616Z,99.99
2017-11-15T05:01:23.763Z,99.99
2017-11-15T05:01:49.908Z,99.99
2017-11-15T05:02:16.049Z,99.99
2017-11-15T05:02:42.194Z,99.99
2017-11-15T05:03:08.341Z,99.99
2017-11-15T05:03:34.508Z,99.99
2017-11-15T05:04:00.674Z,99.99
2017-11-15T05:04:26.839Z,99.99
2017-11-15T05:04:52.987Z,99.99
2017-11-15T05:05:19.127Z,99.99
2017-11-15T05:05:45.271Z,99.99
2017-11-15T05:06:11.419Z,99.99
2017-11-15T05:06:37.571Z,99.99
2017-11-15T05:07:03.710Z,99.99
2017-11-15T05:07:29.853Z,99.99
2017-11-15T05:07:55.996Z,99.99
2017-11-15T05:08:22.149Z,99.99
2017-11-15T05:08:48.291Z,99.99
2017-11-15T05:09:14.443Z,99.99
2017-11-15T05:09:40.608Z,99.99
2017-11-15T05:10:06.761Z,99.99
2017-11-15T05:10:32.912Z,99.99
2017-11-15T05:10:59.072Z,99.99
2017-11-15T05:11:25.210Z,99.99
2017-11-15T05:11:51.363Z,99.99
2017-11-15T05:12:17.508Z,99.99
2017-11-15T05:12:43.646Z,99.99
2017-11-15T05:13:09.825Z,99.99
2017-11-15T05:13:35.977Z,99.99
2017-11-15T05:14:02.118Z,99.99
2017-11-15T05:14:28.264Z,99.99
2017-11-15T05:14:54.403Z,99.99
2017-11-15T05:15:20.541Z,99.99
2017-11-15T05:15:46.691Z,99.99
2017-11-15T05:16:12.857Z,99.99
2017-11-15T05:16:39.008Z,99.99
2017-11-15T05:17:05.154Z,99.99
2017-11-15T05:17:31.305Z,99.99
2017-11-15T05:17:57.443Z,99.99
2017-11-15T05:18:23.591Z,99.99
2017-11-15T05:18:49.736Z,99.99
2017-11-15T05:19:15.884Z,99.99
2017-11-15T05:19:42.026Z,99.99
2017-11-15T05:20:08.173Z,99.99
2017-11-15T05:20:34.311Z,99.99
2017-11-15T05:21:00.453Z,99.99
2017-11-15T05:21:26.598Z,99.99
2017-11-15T05:21:52.741Z,99.99
2017-11-15T05:22:18.903Z,99.99
2017-11-15T05:22:45.065Z,99.99
2017-11-15T05:23:11.205Z,99.99
2017-11-15T05:23:37.369Z,99.99
2017-11-15T05:24:03.523Z,99.99
2017-11-15T05:24:29.684Z,99.99
2017-11-15T05:24:55.828Z,99.99
2017-11-15T05:25:22.002Z,99.99
2017-11-15T05:25:48.152Z,99.99
2017-11-15T05:26:14.295Z,99.99
2017-11-15T05:26:40.440Z,99.99
2017-11-15T05:27:06.584Z,99.99
2017-11-15T05:27:32.760Z,99.99
2017-11-15T05:27:58.903Z,99.99
2017-11-15T05:28:25.050Z,99.99
2017-11-15T05:28:51.199Z,99.99
2017-11-15T05:29:17.346Z,99.99
2017-11-15T05:29:43.498Z,99.99
2017-11-15T05:30:09.628Z,99.99
2017-11-15T05:30:35.773Z,99.99
2017-11-15T05:31:01.921Z,99.99
2017-11-15T05:31:28.073Z,99.99
2017-11-15T05:31:54.216Z,99.99
2017-11-15T05:32:20.368Z,99.99
2017-11-15T05:32:46.505Z,99.99
2017-11-15T05:33:12.669Z,99.99
2017-11-15T05:33:38.842Z,99.99
2017-11-15T05:34:04.988Z,99.99
2017-11-15T05:34:31.137Z,99.99
2017-11-15T05:34:57.273Z,99.99
2017-11-15T05:35:23.418Z,99.99
2017-11-15T05:35:49.576Z,99.99
2017-11-15T05:36:15.708Z,99.99
2017-11-15T05:36:41.849Z,99.99
2017-11-15T05:37:08.000Z,99.99